Terminal Aerodrome Forecast
Issued by NWS

Home | Current Version | Previous Version | Text Only | Print | Product List | Glossary Off
Versions: 1 2 3 4 5 6 7 8 9 10 11 12 13 14 15 16 17

000
FTUS43 KMPX 272300
TAFRWF
TAF
KRWF 272332Z 2800/2824 13005KT P6SM SCT060 BKN250
     FM280900 12005KT P6SM SCT030 OVC120
     FM281200 13006KT 6SM -SHRA SCT030 OVC050
     FM281500 13008KT 4SM -SHRA BR OVC012 PROB30 2815/2820 1SM +TSRA
      BR OVC008CB
      AMD NOT SKED=

USA.gov is the U.S. government's official web portal to all federal, state and local government web resources and services.